Eucla Motel, Australia
Current Conditions -  °F | °C
As of 3:00 AM on Monday 22 Dec 2014 (Local Time) from YCDU Reporting Station
Overcast Overcast  
Wind Chill: 68°   Ceiling: 12500
Heat Index: 68°   Visibility: 6mi
Dew Point: 64°   Wind: 8mph
Humidity: 88%   Direction: 270°W
Pressure: 29.71"   Gusts: NA
Location:  31.68°S, 128.88°E
Report Text: YCDU 211900Z AUTO 27007KT 9999 // SCT074 SCT100 OVC125 20/18 Q1006
Loading
Personal Weather Stations






























Interactive Weather Map New forecast layout! Learn more

10-Day Weather Forecast

Advertisements
Track Severe Weather on mobile